Flight Track Log - Related Links

Times and Time Zones

All times are in EDT time to prevent confusion due to time zone crossing. See the GJS3657 flight status page for this flight to view local times or setup timezone preferences in your user account.


Time Position Orientation Groundspeed Altitude Reporting Facility
EDT Latitude Longitude Course Direction KTS MPH feet Rate Location/Type
Fri 07:08:50 AM 42.7736 -73.8064 336° Northwest 158 182 1,500  Level Boston Center
Fri 07:10:15 AM 42.8461 -73.8503 336° Northwest 211 243 4,500 2,400 Climbing Boston Center
Fri 07:11:15 AM 42.8931 -73.9167 314° West 231 266 7,300 2,600 Climbing Boston Center
Fri 07:12:15 AM 42.9361 -73.9800 313° West 255 293 9,700 2,550 Climbing Boston Center
Fri 07:13:15 AM 42.9953 -74.0694 312° West 277 319 12,400 2,050 Climbing Boston Center
Fri 07:14:15 AM 43.0314 -74.1614 298° West 295 339 13,800 1,650 Climbing Boston Center
Fri 07:15:15 AM 43.0458 -74.3094 278° West 348 400 15,700 1,900 Climbing Boston Center
Fri 07:16:15 AM 43.0539 -74.4406 275° West 378 435 17,600 1,950 Climbing Boston Center
Fri 07:17:15 AM 43.0639 -74.5858 275° West 390 449 19,600 2,050 Climbing Boston Center
Fri 07:18:15 AM 43.0736 -74.7311 275° West 390 449 21,700 1,800 Climbing Boston Center
Fri 07:19:15 AM 43.0850 -74.8764 276° West 390 449 23,200 1,500 Climbing Boston Center
Fri 07:20:15 AM 43.0942 -75.0306 275° West 390 449 24,700 1,350 Climbing Boston Center
Fri 07:21:15 AM 43.1031 -75.1817 275° West 395 455 25,900 1,100 Climbing Boston Center
Fri 07:22:15 AM 43.1136 -75.3528 275° West 409 471 26,900 1,000 Climbing Boston Center
Fri 07:23:15 AM 43.1239 -75.5125 275° West 419 482 27,900 1,000 Climbing Boston Center
Fri 07:24:15 AM 43.1317 -75.6781 274° West 430 495 28,900 1,000 Climbing Boston Center
Fri 07:25:15 AM 43.1417 -75.8436 275° West 435 501 29,900 1,000 Climbing Boston Center
Fri 07:26:15 AM 43.1428 -76.0089 271° West 435 501 30,900 1,000 Climbing Boston Center
Fri 07:27:15 AM 43.1292 -76.1731 264° West 440 506 31,900 843 Climbing Boston Center
Fri 07:29:13 AM 43.0667 -76.4667 254° West 440 506 33,400 689 Climbing Toronto Center
Fri 07:29:43 AM 43.0742 -76.5669 276° West 438 504 33,600 733 Climbing Cleveland Center
Fri 07:30:43 AM 43.0594 -76.7497 264° West 438 504 34,500 800 Climbing Cleveland Center
Fri 07:31:43 AM 43.0608 -76.9203 271° West 443 510 35,200 700 Climbing Cleveland Center
Fri 07:32:43 AM 43.0639 -77.0878 271° West 443 510 35,900 400 Climbing Cleveland Center
Fri 07:33:43 AM 43.0647 -77.2553 270° West 443 510 36,000 50 Climbing Cleveland Center
Fri 07:34:43 AM 43.0653 -77.4258 270° West 443 510 36,000  Level Cleveland Center
Fri 07:35:43 AM 43.0678 -77.5933 271° West 443 510 36,000  Level Cleveland Center
Fri 07:36:43 AM 43.0678 -77.7611 270° West 443 510 36,000  Level Cleveland Center
Fri 07:37:43 AM 43.0697 -77.9317 271° West 443 510 36,000  Level Cleveland Center
Fri 07:38:43 AM 43.0714 -78.1050 271° West 448 516 36,000  Level Cleveland Center
Fri 07:39:43 AM 43.0708 -78.2783 270° West 453 521 36,000  Level Cleveland Center
Fri 07:40:43 AM 43.0719 -78.4517 271° West 458 527 36,000  Level Cleveland Center
Fri 07:41:43 AM 43.0711 -78.6250 270° West 458 527 36,000  Level Cleveland Center
Fri 07:42:43 AM 43.0486 -78.7933 260° West 458 527 36,000  Level Cleveland Center
Fri 07:43:43 AM 43.0261 -78.9589 260° West 458 527 36,000  Level Cleveland Center
Fri 07:44:13 AM 43.0000 -79.0167 238° Southwest 440 506 36,000  Level Toronto Center
Fri 07:45:13 AM 43.0000 -79.1833 270° West 440 506 36,000  Level Toronto Center
Fri 07:46:13 AM 43.0000 -79.3667 270° West 440 506 36,000  Level Toronto Center
Fri 07:47:13 AM 43.0000 -79.5167 270° West 450 518 36,000  Level Toronto Center
Fri 07:48:13 AM 43.0000 -79.7000 270° West 450 518 36,000  Level Toronto Center
Fri 07:49:13 AM 43.0000 -79.8667 270° West 450 518 36,000  Level Toronto Center
Fri 07:50:13 AM 43.0000 -80.0500 270° West 450 518 36,000  Level Toronto Center
Fri 07:51:13 AM 43.0000 -80.2000 270° West 450 518 36,000  Level Toronto Center
Fri 07:52:13 AM 43.0167 -80.3667 278° West 440 506 36,000  Level Toronto Center
Fri 07:53:13 AM 43.0167 -80.5167 270° West 440 506 36,000  Level Toronto Center
Fri 07:54:13 AM 43.0167 -80.7000 270° West 430 495 36,000  Level Toronto Center
Fri 07:55:13 AM 43.0000 -80.8667 262° West 430 495 36,000  Level Toronto Center
Fri 07:56:13 AM 43.0000 -81.0167 270° West 430 495 36,000  Level Toronto Center
Fri 07:57:13 AM 43.0000 -81.1833 270° West 430 495 36,000  Level Toronto Center
Fri 07:58:13 AM 43.0000 -81.3500 270° West 430 495 36,000  Level Toronto Center
Fri 07:59:13 AM 43.0000 -81.5333 270° West 430 495 36,000  Level Toronto Center
Fri 08:00:13 AM 43.0000 -81.6833 270° West 430 495 36,000  Level Toronto Center
Fri 08:01:13 AM 43.0000 -81.8500 270° West 430 495 36,000  Level Toronto Center
Fri 08:02:13 AM 42.9833 -82.0000 261° West 430 495 36,000  Level Toronto Center
Fri 08:03:13 AM 42.9833 -82.1667 270° West 420 483 36,000  Level Toronto Center
Fri 08:04:13 AM 42.9833 -82.3167 270° West 430 495 36,000  Level Toronto Center
Fri 08:05:13 AM 42.9833 -82.4833 270° West 430 495 36,000  Level Toronto Center
Fri 08:06:13 AM 42.9667 -82.6333 261° West 430 495 36,000  Level Toronto Center
Fri 08:06:55 AM 42.9833 -82.7714 279° West 421 484 36,000  Level Cleveland Center
Fri 08:07:55 AM 42.9761 -82.9328 267° West 421 484 36,000  Level Cleveland Center
Fri 08:08:55 AM 42.9683 -83.0942 266° West 421 484 36,000  Level Cleveland Center
Fri 08:09:55 AM 42.9586 -83.2556 265° West 421 484 36,000 -250 Level Cleveland Center
Fri 08:10:55 AM 42.9508 -83.4114 266° West 416 479 35,500 -800 Descending Cleveland Center
Fri 08:11:55 AM 42.9425 -83.5669 266° West 416 479 34,400 -1,050 Descending Cleveland Center
Fri 08:12:55 AM 42.9319 -83.7367 265° West 440 506 33,400 -1,000 Descending Cleveland Center
Fri 08:13:55 AM 42.9233 -83.8950 266° West 435 501 32,400 -700 Descending Cleveland Center
Fri 08:14:55 AM 42.9144 -84.0561 266° West 435 501 32,000 -200 Descending Cleveland Center
Fri 08:15:55 AM 42.9053 -84.2172 266° West 429 494 32,000  Level Cleveland Center
Fri 08:16:55 AM 42.9008 -84.3558 268° West 429 494 32,000  Level Cleveland Center
Fri 08:17:42 AM 42.8908 -84.4747 263° West 430 495 32,000  Level Chicago Center
Fri 08:18:44 AM 42.8797 -84.6369 265° West 431 496 32,000  Level Chicago Center
Fri 08:19:45 AM 42.8586 -84.8289 262° West 429 494 32,000  Level Chicago Center
Fri 08:20:47 AM 42.8425 -84.9886 262° West 426 490 32,000  Level Chicago Center
Fri 08:21:49 AM 42.8247 -85.1494 261° West 430 495 32,000 -290 Level Chicago Center
Fri 08:22:51 AM 42.8069 -85.3103 261° West 429 494 31,400 -1,500 Descending Chicago Center
Fri 08:23:53 AM 42.7900 -85.4728 262° West 433 498 28,900 -2,341 Descending Chicago Center
Fri 08:24:54 AM 42.7628 -85.6317 257° West 431 496 26,600 -2,244 Descending Chicago Center
Fri 08:25:56 AM 42.7350 -85.7867 256° West 423 487 24,300 -2,226 Descending Chicago Center
Fri 08:26:58 AM 42.7078 -85.9358 256° West 409 471 22,000 -2,032 Descending Chicago Center
Fri 08:28:00 AM 42.6764 -86.1064 256° West 390 449 20,100 -968 Descending Chicago Center
Fri 08:29:02 AM 42.6497 -86.2519 256° West 392 451 20,000 -48 Descending Chicago Center
Fri 08:30:04 AM 42.6194 -86.4008 255° West 405 466 20,000 -634 Level Chicago Center
Fri 08:31:05 AM 42.5933 -86.5475 256° West 401 461 18,700 -1,561 Descending Chicago Center
Fri 08:32:07 AM 42.5661 -86.6967 256° West 380 437 16,800 -1,790 Descending Chicago Center
Fri 08:33:09 AM 42.5344 -86.8281 252° West 399 459 15,000 -1,742 Descending Chicago Center
Fri 08:34:11 AM 42.4975 -86.9619 250° West 384 442 13,200 -1,694 Descending Chicago Center
Fri 08:35:13 AM 42.4633 -87.0856 249° West 357 411 11,500 -1,500 Descending Chicago Center
Fri 08:36:15 AM 42.4189 -87.2406 249° West 369 425 10,100 -683 Descending Chicago Center
Fri 08:37:16 AM 42.3844 -87.3681 250° West 364 419 10,100 -49 Level Chicago Center
Fri 08:38:18 AM 42.3478 -87.4972 249° West 357 411 10,000  Descending Chicago Center
Fri 08:39:20 AM 42.2808 -87.5953 227° Southwest 365 420 10,100  Climbing Chicago Center
Fri 08:40:22 AM 42.2042 -87.6786 219° Southwest 356 410 10,000 -677 Descending Chicago Center
Fri 08:41:24 AM 42.1389 -87.7456 217° Southwest 300 345 8,700 -1,415 Descending Chicago Center
Fri 08:42:25 AM 42.0911 -87.8250 231° Southwest 285 328 7,100 -1,143 Descending Chicago Center
Fri 08:42:48 AM 42.1000 -87.8833 282° West 276 318 7,100 -77 Level Chicago TRACON
Fri 08:43:43 AM 42.1000 -87.9833 270° West 265 305 7,000 -52 Descending Chicago TRACON
Fri 08:44:43 AM 42.1000 -88.0667 270° West 227 261 7,000 -600 Level Chicago TRACON
Fri 08:45:43 AM 42.0833 -88.1333 251° West 194 223 5,800 -1,300 Descending Chicago TRACON
Fri 08:46:43 AM 42.0667 -88.2000 251° West 202 232 4,400 -973 Descending Chicago TRACON
Fri 08:47:34 AM 42.0467 -88.2450 239° Southwest 216 249 4,000 -212 Descending Chicago Center
Fri 08:48:36 AM 41.9936 -88.2764 204° Southwest 200 230 4,000  Level Chicago Center
Fri 08:49:37 AM 41.9658 -88.2431 138° Southeast 181 208 4,000 49 Level Chicago Center
Fri 08:50:39 AM 41.9692 -88.1847 86° East 167 192 4,100 -145 Climbing Chicago Center
Fri 08:51:41 AM 41.9681 -88.1267 91° East 159 183 3,700 -634 Descending Chicago Center
Fri 08:52:42 AM 41.9683 -88.0686 90° East 157 181 2,800 -884 Descending Chicago Center
Fri 08:53:50 AM 41.9667 -88.0000 92° East 124 143 1,800 -797 Descending Chicago TRACON
Fri 08:54:50 AM 41.9667 -87.9500 90° East 130 150 1,100 -700 Descending Chicago TRACON
Fri 08:56:00 AM 41.9817 -87.9067 185° South  Level Estimated

Login

Don't have an account? Register now (free) for customized features, flight alerts, and more!